sensor_id;sensor_type;location;lat;lon;timestamp;P1;durP1;ratioP1;P2;durP2;ratioP2
30301;SDS011;17111;52.130;5.028;2023-05-07T00:00:31;36.65;;;25.15;;
30301;SDS011;17111;52.130;5.028;2023-05-07T00:02:57;37.20;;;24.27;;
30301;SDS011;17111;52.130;5.028;2023-05-07T00:05:24;41.17;;;25.55;;
30301;SDS011;17111;52.130;5.028;2023-05-07T00:07:51;38.40;;;24.92;;
30301;SDS011;17111;52.130;5.028;2023-05-07T00:10:18;38.38;;;25.42;;
30301;SDS011;17111;52.130;5.028;2023-05-07T00:12:45;39.00;;;24.38;;
30301;SDS011;17111;52.130;5.028;2023-05-07T00:15:12;37.67;;;24.48;;
30301;SDS011;17111;52.130;5.028;2023-05-07T00:17:39;36.70;;;24.45;;
30301;SDS011;17111;52.130;5.028;2023-05-07T00:20:06;37.58;;;24.80;;
30301;SDS011;17111;52.130;5.028;2023-05-07T00:22:33;36.67;;;24.88;;
30301;SDS011;17111;52.130;5.028;2023-05-07T00:25:00;38.50;;;23.63;;
30301;SDS011;17111;52.130;5.028;2023-05-07T00:27:26;37.28;;;23.92;;
30301;SDS011;17111;52.130;5.028;2023-05-07T00:29:53;35.72;;;23.92;;
30301;SDS011;17111;52.130;5.028;2023-05-07T00:32:19;39.00;;;25.25;;
30301;SDS011;17111;52.130;5.028;2023-05-07T00:34:46;35.92;;;23.90;;
30301;SDS011;17111;52.130;5.028;2023-05-07T00:37:13;34.33;;;23.75;;
30301;SDS011;17111;52.130;5.028;2023-05-07T00:39:39;36.10;;;23.65;;
30301;SDS011;17111;52.130;5.028;2023-05-07T00:42:06;37.08;;;23.38;;
30301;SDS011;17111;52.130;5.028;2023-05-07T00:44:32;35.30;;;23.58;;
30301;SDS011;17111;52.130;5.028;2023-05-07T00:46:59;34.20;;;22.50;;
30301;SDS011;17111;52.130;5.028;2023-05-07T00:49:37;33.72;;;22.90;;
30301;SDS011;17111;52.130;5.028;2023-05-07T00:52:06;35.08;;;22.92;;
30301;SDS011;17111;52.130;5.028;2023-05-07T00:54:34;35.28;;;23.02;;
30301;SDS011;17111;52.130;5.028;2023-05-07T00:57:02;33.80;;;22.88;;
30301;SDS011;17111;52.130;5.028;2023-05-07T00:59:30;31.63;;;21.65;;
30301;SDS011;17111;52.130;5.028;2023-05-07T01:01:58;34.78;;;23.73;;
30301;SDS011;17111;52.130;5.028;2023-05-07T01:04:26;33.55;;;22.45;;
30301;SDS011;17111;52.130;5.028;2023-05-07T01:06:56;33.00;;;21.75;;
30301;SDS011;17111;52.130;5.028;2023-05-07T01:09:25;35.90;;;22.05;;
30301;SDS011;17111;52.130;5.028;2023-05-07T01:11:53;33.63;;;21.98;;
30301;SDS011;17111;52.130;5.028;2023-05-07T01:14:20;34.10;;;22.88;;
30301;SDS011;17111;52.130;5.028;2023-05-07T01:16:47;31.63;;;21.80;;
30301;SDS011;17111;52.130;5.028;2023-05-07T01:19:14;30.42;;;21.08;;
30301;SDS011;17111;52.130;5.028;2023-05-07T01:21:45;33.58;;;21.70;;
30301;SDS011;17111;52.130;5.028;2023-05-07T01:24:13;33.13;;;21.98;;
30301;SDS011;17111;52.130;5.028;2023-05-07T01:26:41;32.45;;;21.25;;
30301;SDS011;17111;52.130;5.028;2023-05-07T01:29:08;34.10;;;21.25;;
30301;SDS011;17111;52.130;5.028;2023-05-07T01:31:36;32.90;;;21.75;;
30301;SDS011;17111;52.130;5.028;2023-05-07T01:34:03;33.10;;;21.13;;
30301;SDS011;17111;52.130;5.028;2023-05-07T01:36:33;30.55;;;20.60;;
30301;SDS011;17111;52.130;5.028;2023-05-07T01:38:59;28.50;;;19.83;;
30301;SDS011;17111;52.130;5.028;2023-05-07T01:41:26;28.27;;;19.45;;
30301;SDS011;17111;52.130;5.028;2023-05-07T01:43:54;30.63;;;19.92;;
30301;SDS011;17111;52.130;5.028;2023-05-07T01:46:22;29.73;;;20.10;;
30301;SDS011;17111;52.130;5.028;2023-05-07T01:48:49;29.80;;;20.30;;
30301;SDS011;17111;52.130;5.028;2023-05-07T01:51:16;29.88;;;20.30;;
30301;SDS011;17111;52.130;5.028;2023-05-07T01:53:43;32.75;;;19.92;;
30301;SDS011;17111;52.130;5.028;2023-05-07T01:56:11;29.27;;;18.48;;
30301;SDS011;17111;52.130;5.028;2023-05-07T01:58:38;29.45;;;20.10;;
30301;SDS011;17111;52.130;5.028;2023-05-07T02:01:04;29.35;;;19.88;;
30301;SDS011;17111;52.130;5.028;2023-05-07T02:03:31;30.95;;;20.35;;
30301;SDS011;17111;52.130;5.028;2023-05-07T02:05:58;28.13;;;18.20;;
30301;SDS011;17111;52.130;5.028;2023-05-07T02:08:24;29.52;;;18.98;;
30301;SDS011;17111;52.130;5.028;2023-05-07T02:10:51;27.35;;;18.52;;
30301;SDS011;17111;52.130;5.028;2023-05-07T02:13:18;28.25;;;18.77;;
30301;SDS011;17111;52.130;5.028;2023-05-07T02:15:46;27.25;;;18.10;;
30301;SDS011;17111;52.130;5.028;2023-05-07T02:18:16;27.65;;;18.13;;
30301;SDS011;17111;52.130;5.028;2023-05-07T02:20:43;26.27;;;17.83;;
30301;SDS011;17111;52.130;5.028;2023-05-07T02:23:09;24.45;;;16.83;;
30301;SDS011;17111;52.130;5.028;2023-05-07T02:25:36;27.55;;;18.20;;
30301;SDS011;17111;52.130;5.028;2023-05-07T02:28:02;25.27;;;17.20;;
30301;SDS011;17111;52.130;5.028;2023-05-07T02:30:29;26.65;;;17.10;;
30301;SDS011;17111;52.130;5.028;2023-05-07T02:32:56;24.52;;;16.73;;
30301;SDS011;17111;52.130;5.028;2023-05-07T02:35:23;26.63;;;18.10;;
30301;SDS011;17111;52.130;5.028;2023-05-07T02:37:50;25.33;;;17.45;;
30301;SDS011;17111;52.130;5.028;2023-05-07T02:40:17;25.08;;;17.40;;
30301;SDS011;17111;52.130;5.028;2023-05-07T02:42:44;25.45;;;17.15;;
30301;SDS011;17111;52.130;5.028;2023-05-07T02:45:10;25.48;;;17.48;;
30301;SDS011;17111;52.130;5.028;2023-05-07T02:47:37;30.75;;;17.23;;
30301;SDS011;17111;52.130;5.028;2023-05-07T02:50:04;23.55;;;15.60;;
30301;SDS011;17111;52.130;5.028;2023-05-07T02:52:31;22.65;;;15.88;;
30301;SDS011;17111;52.130;5.028;2023-05-07T02:54:57;24.45;;;16.40;;
30301;SDS011;17111;52.130;5.028;2023-05-07T02:57:24;22.67;;;15.77;;
30301;SDS011;17111;52.130;5.028;2023-05-07T02:59:51;24.98;;;16.20;;
30301;SDS011;17111;52.130;5.028;2023-05-07T03:02:18;24.30;;;16.98;;
30301;SDS011;17111;52.130;5.028;2023-05-07T03:04:44;24.65;;;16.48;;
30301;SDS011;17111;52.130;5.028;2023-05-07T03:07:11;25.83;;;16.95;;
30301;SDS011;17111;52.130;5.028;2023-05-07T03:09:37;23.58;;;16.13;;
30301;SDS011;17111;52.130;5.028;2023-05-07T03:12:04;22.95;;;15.80;;
30301;SDS011;17111;52.130;5.028;2023-05-07T03:14:30;24.73;;;16.77;;
30301;SDS011;17111;52.130;5.028;2023-05-07T03:16:57;23.17;;;15.70;;
30301;SDS011;17111;52.130;5.028;2023-05-07T03:19:24;22.92;;;14.65;;
30301;SDS011;17111;52.130;5.028;2023-05-07T03:21:50;21.70;;;14.75;;
30301;SDS011;17111;52.130;5.028;2023-05-07T03:24:17;22.83;;;15.23;;
30301;SDS011;17111;52.130;5.028;2023-05-07T03:26:43;23.17;;;15.23;;
30301;SDS011;17111;52.130;5.028;2023-05-07T03:29:10;21.33;;;14.85;;
30301;SDS011;17111;52.130;5.028;2023-05-07T03:31:37;21.60;;;15.27;;
30301;SDS011;17111;52.130;5.028;2023-05-07T03:34:03;22.75;;;15.32;;
30301;SDS011;17111;52.130;5.028;2023-05-07T03:36:30;23.77;;;14.65;;
30301;SDS011;17111;52.130;5.028;2023-05-07T03:38:56;21.30;;;15.25;;
30301;SDS011;17111;52.130;5.028;2023-05-07T03:41:23;19.48;;;13.75;;
30301;SDS011;17111;52.130;5.028;2023-05-07T03:43:49;19.75;;;13.93;;
30301;SDS011;17111;52.130;5.028;2023-05-07T03:46:16;21.45;;;14.48;;
30301;SDS011;17111;52.130;5.028;2023-05-07T03:48:42;20.20;;;14.27;;
30301;SDS011;17111;52.130;5.028;2023-05-07T03:51:09;18.98;;;12.48;;
30301;SDS011;17111;52.130;5.028;2023-05-07T03:53:36;19.13;;;13.50;;
30301;SDS011;17111;52.130;5.028;2023-05-07T03:56:03;18.23;;;13.00;;
30301;SDS011;17111;52.130;5.028;2023-05-07T03:58:29;18.83;;;13.35;;
30301;SDS011;17111;52.130;5.028;2023-05-07T04:00:56;18.67;;;13.02;;
30301;SDS011;17111;52.130;5.028;2023-05-07T04:03:23;20.77;;;13.55;;
30301;SDS011;17111;52.130;5.028;2023-05-07T04:05:49;20.58;;;13.98;;
30301;SDS011;17111;52.130;5.028;2023-05-07T04:08:16;21.10;;;13.00;;
30301;SDS011;17111;52.130;5.028;2023-05-07T04:10:42;18.67;;;12.60;;
30301;SDS011;17111;52.130;5.028;2023-05-07T04:13:09;18.15;;;12.02;;
30301;SDS011;17111;52.130;5.028;2023-05-07T04:15:36;20.60;;;13.70;;
30301;SDS011;17111;52.130;5.028;2023-05-07T04:18:02;19.33;;;13.27;;
30301;SDS011;17111;52.130;5.028;2023-05-07T04:20:29;20.40;;;12.93;;
30301;SDS011;17111;52.130;5.028;2023-05-07T04:22:55;18.15;;;12.70;;
30301;SDS011;17111;52.130;5.028;2023-05-07T04:25:22;18.40;;;12.10;;
30301;SDS011;17111;52.130;5.028;2023-05-07T04:27:52;20.88;;;13.20;;
30301;SDS011;17111;52.130;5.028;2023-05-07T04:30:22;16.23;;;11.70;;
30301;SDS011;17111;52.130;5.028;2023-05-07T04:32:48;17.00;;;12.13;;
30301;SDS011;17111;52.130;5.028;2023-05-07T04:35:15;16.70;;;11.20;;
30301;SDS011;17111;52.130;5.028;2023-05-07T04:37:42;17.33;;;11.88;;
30301;SDS011;17111;52.130;5.028;2023-05-07T04:40:08;17.27;;;11.88;;
30301;SDS011;17111;52.130;5.028;2023-05-07T04:42:36;17.73;;;12.05;;
30301;SDS011;17111;52.130;5.028;2023-05-07T04:45:03;17.80;;;12.43;;
30301;SDS011;17111;52.130;5.028;2023-05-07T04:47:31;17.20;;;11.50;;
30301;SDS011;17111;52.130;5.028;2023-05-07T04:49:57;14.80;;;10.90;;
30301;SDS011;17111;52.130;5.028;2023-05-07T04:52:24;15.75;;;10.43;;
30301;SDS011;17111;52.130;5.028;2023-05-07T04:54:52;15.98;;;10.70;;
30301;SDS011;17111;52.130;5.028;2023-05-07T04:57:19;16.10;;;10.70;;
30301;SDS011;17111;52.130;5.028;2023-05-07T04:59:46;16.75;;;11.20;;
30301;SDS011;17111;52.130;5.028;2023-05-07T05:02:12;16.35;;;11.00;;
30301;SDS011;17111;52.130;5.028;2023-05-07T05:04:39;17.45;;;11.85;;
30301;SDS011;17111;52.130;5.028;2023-05-07T05:07:05;16.05;;;10.80;;
30301;SDS011;17111;52.130;5.028;2023-05-07T05:09:32;14.73;;;10.70;;
30301;SDS011;17111;52.130;5.028;2023-05-07T05:11:59;16.95;;;11.38;;
30301;SDS011;17111;52.130;5.028;2023-05-07T05:14:25;18.52;;;10.75;;
30301;SDS011;17111;52.130;5.028;2023-05-07T05:16:52;15.15;;;10.95;;
30301;SDS011;17111;52.130;5.028;2023-05-07T05:19:19;14.50;;;10.15;;
30301;SDS011;17111;52.130;5.028;2023-05-07T05:21:45;16.63;;;11.27;;
30301;SDS011;17111;52.130;5.028;2023-05-07T05:24:12;16.27;;;11.07;;
30301;SDS011;17111;52.130;5.028;2023-05-07T05:26:38;15.20;;;10.65;;
30301;SDS011;17111;52.130;5.028;2023-05-07T05:29:05;15.50;;;10.55;;
30301;SDS011;17111;52.130;5.028;2023-05-07T05:31:32;15.00;;;10.32;;
30301;SDS011;17111;52.130;5.028;2023-05-07T05:33:59;15.43;;;10.68;;
30301;SDS011;17111;52.130;5.028;2023-05-07T05:36:26;15.63;;;10.52;;
30301;SDS011;17111;52.130;5.028;2023-05-07T05:38:53;14.02;;;9.60;;
30301;SDS011;17111;52.130;5.028;2023-05-07T05:41:19;14.52;;;10.43;;
30301;SDS011;17111;52.130;5.028;2023-05-07T05:43:46;14.48;;;10.23;;
30301;SDS011;17111;52.130;5.028;2023-05-07T05:46:13;15.38;;;9.82;;
30301;SDS011;17111;52.130;5.028;2023-05-07T05:48:39;14.10;;;10.00;;
30301;SDS011;17111;52.130;5.028;2023-05-07T05:51:06;13.82;;;10.10;;
30301;SDS011;17111;52.130;5.028;2023-05-07T05:53:33;14.73;;;9.32;;
30301;SDS011;17111;52.130;5.028;2023-05-07T05:55:59;15.23;;;9.68;;
30301;SDS011;17111;52.130;5.028;2023-05-07T05:58:26;12.90;;;9.02;;
30301;SDS011;17111;52.130;5.028;2023-05-07T06:00:53;13.82;;;9.63;;
30301;SDS011;17111;52.130;5.028;2023-05-07T06:03:19;14.90;;;9.95;;
30301;SDS011;17111;52.130;5.028;2023-05-07T06:05:46;12.00;;;8.73;;
30301;SDS011;17111;52.130;5.028;2023-05-07T06:08:13;13.73;;;9.52;;
30301;SDS011;17111;52.130;5.028;2023-05-07T06:10:39;12.93;;;9.13;;
30301;SDS011;17111;52.130;5.028;2023-05-07T06:13:06;11.98;;;8.30;;
30301;SDS011;17111;52.130;5.028;2023-05-07T06:15:33;12.73;;;8.73;;
30301;SDS011;17111;52.130;5.028;2023-05-07T06:17:59;14.15;;;9.57;;
30301;SDS011;17111;52.130;5.028;2023-05-07T06:20:26;13.00;;;9.35;;
30301;SDS011;17111;52.130;5.028;2023-05-07T06:22:52;13.93;;;9.18;;
30301;SDS011;17111;52.130;5.028;2023-05-07T06:25:19;13.48;;;9.43;;
30301;SDS011;17111;52.130;5.028;2023-05-07T06:27:46;13.68;;;9.63;;
30301;SDS011;17111;52.130;5.028;2023-05-07T06:30:12;11.38;;;8.00;;
30301;SDS011;17111;52.130;5.028;2023-05-07T06:32:40;12.13;;;8.18;;
30301;SDS011;17111;52.130;5.028;2023-05-07T06:35:07;13.35;;;9.02;;
30301;SDS011;17111;52.130;5.028;2023-05-07T06:37:34;11.88;;;8.27;;
30301;SDS011;17111;52.130;5.028;2023-05-07T06:40:00;12.27;;;8.48;;
30301;SDS011;17111;52.130;5.028;2023-05-07T06:42:27;11.80;;;8.48;;
30301;SDS011;17111;52.130;5.028;2023-05-07T06:44:53;11.73;;;8.13;;
30301;SDS011;17111;52.130;5.028;2023-05-07T06:47:21;11.98;;;8.13;;
30301;SDS011;17111;52.130;5.028;2023-05-07T06:49:47;11.48;;;8.23;;
30301;SDS011;17111;52.130;5.028;2023-05-07T06:52:14;11.95;;;8.18;;
30301;SDS011;17111;52.130;5.028;2023-05-07T06:54:40;12.02;;;8.43;;
30301;SDS011;17111;52.130;5.028;2023-05-07T06:57:07;12.88;;;8.68;;
30301;SDS011;17111;52.130;5.028;2023-05-07T06:59:33;11.18;;;7.88;;
30301;SDS011;17111;52.130;5.028;2023-05-07T07:02:00;12.50;;;8.00;;
30301;SDS011;17111;52.130;5.028;2023-05-07T07:04:27;12.57;;;8.13;;
30301;SDS011;17111;52.130;5.028;2023-05-07T07:06:54;11.43;;;7.88;;
30301;SDS011;17111;52.130;5.028;2023-05-07T07:09:22;11.60;;;7.53;;
30301;SDS011;17111;52.130;5.028;2023-05-07T07:11:49;11.23;;;7.65;;
30301;SDS011;17111;52.130;5.028;2023-05-07T07:14:16;10.48;;;7.00;;
30301;SDS011;17111;52.130;5.028;2023-05-07T07:16:42;10.55;;;7.15;;
30301;SDS011;17111;52.130;5.028;2023-05-07T07:19:09;10.50;;;7.50;;
30301;SDS011;17111;52.130;5.028;2023-05-07T07:21:35;10.45;;;7.47;;
30301;SDS011;17111;52.130;5.028;2023-05-07T07:24:02;10.57;;;7.40;;
30301;SDS011;17111;52.130;5.028;2023-05-07T07:26:28;10.48;;;7.22;;
30301;SDS011;17111;52.130;5.028;2023-05-07T07:28:55;11.18;;;7.82;;
30301;SDS011;17111;52.130;5.028;2023-05-07T07:31:22;10.23;;;7.35;;
30301;SDS011;17111;52.130;5.028;2023-05-07T07:33:48;11.80;;;7.70;;
30301;SDS011;17111;52.130;5.028;2023-05-07T07:36:18;10.48;;;7.35;;
30301;SDS011;17111;52.130;5.028;2023-05-07T07:38:45;9.50;;;7.00;;
30301;SDS011;17111;52.130;5.028;2023-05-07T07:41:11;9.93;;;7.38;;
30301;SDS011;17111;52.130;5.028;2023-05-07T07:43:38;14.25;;;8.20;;
30301;SDS011;17111;52.130;5.028;2023-05-07T07:46:04;15.10;;;8.55;;
30301;SDS011;17111;52.130;5.028;2023-05-07T07:48:31;16.70;;;9.35;;
30301;SDS011;17111;52.130;5.028;2023-05-07T07:50:58;16.13;;;10.25;;
30301;SDS011;17111;52.130;5.028;2023-05-07T07:53:24;19.27;;;11.95;;
30301;SDS011;17111;52.130;5.028;2023-05-07T07:55:51;19.27;;;11.77;;
30301;SDS011;17111;52.130;5.028;2023-05-07T07:58:23;21.00;;;12.48;;
30301;SDS011;17111;52.130;5.028;2023-05-07T08:00:50;19.60;;;12.63;;
30301;SDS011;17111;52.130;5.028;2023-05-07T08:03:17;22.10;;;13.15;;
30301;SDS011;17111;52.130;5.028;2023-05-07T08:05:44;23.73;;;14.57;;
30301;SDS011;17111;52.130;5.028;2023-05-07T08:08:10;29.77;;;18.98;;
30301;SDS011;17111;52.130;5.028;2023-05-07T08:10:37;35.35;;;20.30;;
30301;SDS011;17111;52.130;5.028;2023-05-07T08:13:05;38.97;;;20.27;;
30301;SDS011;17111;52.130;5.028;2023-05-07T08:15:32;36.45;;;22.08;;
30301;SDS011;17111;52.130;5.028;2023-05-07T08:17:58;34.78;;;21.40;;
30301;SDS011;17111;52.130;5.028;2023-05-07T08:20:26;30.08;;;19.65;;
30301;SDS011;17111;52.130;5.028;2023-05-07T08:22:53;34.80;;;19.63;;
30301;SDS011;17111;52.130;5.028;2023-05-07T08:25:19;34.40;;;20.13;;
30301;SDS011;17111;52.130;5.028;2023-05-07T08:27:46;32.78;;;19.48;;
30301;SDS011;17111;52.130;5.028;2023-05-07T08:30:13;33.30;;;20.38;;
30301;SDS011;17111;52.130;5.028;2023-05-07T08:32:40;34.13;;;20.15;;
30301;SDS011;17111;52.130;5.028;2023-05-07T08:35:06;33.20;;;19.05;;
30301;SDS011;17111;52.130;5.028;2023-05-07T08:37:33;35.08;;;16.40;;
30301;SDS011;17111;52.130;5.028;2023-05-07T08:40:00;34.30;;;14.48;;
30301;SDS011;17111;52.130;5.028;2023-05-07T08:42:27;43.33;;;18.25;;
30301;SDS011;17111;52.130;5.028;2023-05-07T08:44:56;43.60;;;18.02;;
30301;SDS011;17111;52.130;5.028;2023-05-07T08:47:23;49.03;;;19.13;;
30301;SDS011;17111;52.130;5.028;2023-05-07T08:49:56;44.83;;;21.35;;
30301;SDS011;17111;52.130;5.028;2023-05-07T08:52:22;44.15;;;20.58;;
30301;SDS011;17111;52.130;5.028;2023-05-07T08:54:49;44.38;;;19.20;;
30301;SDS011;17111;52.130;5.028;2023-05-07T08:57:16;41.72;;;19.85;;
30301;SDS011;17111;52.130;5.028;2023-05-07T08:59:42;45.80;;;20.85;;
30301;SDS011;17111;52.130;5.028;2023-05-07T09:02:09;42.28;;;20.42;;
30301;SDS011;17111;52.130;5.028;2023-05-07T09:04:37;50.65;;;22.70;;
30301;SDS011;17111;52.130;5.028;2023-05-07T09:07:04;45.28;;;22.27;;
30301;SDS011;17111;52.130;5.028;2023-05-07T09:09:34;40.22;;;18.95;;
30301;SDS011;17111;52.130;5.028;2023-05-07T09:12:01;37.10;;;20.85;;
30301;SDS011;17111;52.130;5.028;2023-05-07T09:14:29;36.80;;;19.85;;
30301;SDS011;17111;52.130;5.028;2023-05-07T09:16:59;36.85;;;19.77;;
30301;SDS011;17111;52.130;5.028;2023-05-07T09:19:26;37.08;;;19.55;;
30301;SDS011;17111;52.130;5.028;2023-05-07T09:22:00;35.78;;;19.17;;
30301;SDS011;17111;52.130;5.028;2023-05-07T09:24:31;40.33;;;20.75;;
30301;SDS011;17111;52.130;5.028;2023-05-07T09:27:01;38.80;;;21.33;;
30301;SDS011;17111;52.130;5.028;2023-05-07T09:29:28;36.40;;;19.58;;
30301;SDS011;17111;52.130;5.028;2023-05-07T09:31:56;32.72;;;19.33;;
30301;SDS011;17111;52.130;5.028;2023-05-07T09:34:22;32.60;;;19.02;;
30301;SDS011;17111;52.130;5.028;2023-05-07T09:36:49;35.47;;;18.35;;
30301;SDS011;17111;52.130;5.028;2023-05-07T09:39:16;34.97;;;19.55;;
30301;SDS011;17111;52.130;5.028;2023-05-07T09:41:43;33.78;;;18.45;;
30301;SDS011;17111;52.130;5.028;2023-05-07T09:44:11;35.33;;;18.80;;
30301;SDS011;17111;52.130;5.028;2023-05-07T09:46:41;30.70;;;18.20;;
30301;SDS011;17111;52.130;5.028;2023-05-07T09:49:19;38.10;;;21.55;;
30301;SDS011;17111;52.130;5.028;2023-05-07T09:51:48;30.40;;;17.95;;
30301;SDS011;17111;52.130;5.028;2023-05-07T09:54:16;32.63;;;19.15;;
30301;SDS011;17111;52.130;5.028;2023-05-07T09:56:50;34.47;;;18.73;;
30301;SDS011;17111;52.130;5.028;2023-05-07T09:59:18;30.73;;;18.80;;
30301;SDS011;17111;52.130;5.028;2023-05-07T10:01:46;30.58;;;19.30;;
30301;SDS011;17111;52.130;5.028;2023-05-07T10:04:12;31.52;;;18.50;;
30301;SDS011;17111;52.130;5.028;2023-05-07T10:06:40;29.30;;;18.08;;
30301;SDS011;17111;52.130;5.028;2023-05-07T10:09:08;27.00;;;17.73;;
30301;SDS011;17111;52.130;5.028;2023-05-07T10:11:36;25.63;;;17.00;;
30301;SDS011;17111;52.130;5.028;2023-05-07T10:14:03;32.60;;;18.75;;
30301;SDS011;17111;52.130;5.028;2023-05-07T10:16:32;31.45;;;19.00;;
30301;SDS011;17111;52.130;5.028;2023-05-07T10:19:03;29.95;;;18.10;;
30301;SDS011;17111;52.130;5.028;2023-05-07T10:21:30;35.13;;;19.52;;
30301;SDS011;17111;52.130;5.028;2023-05-07T10:24:09;26.08;;;15.63;;
30301;SDS011;17111;52.130;5.028;2023-05-07T10:26:42;28.38;;;17.60;;
30301;SDS011;17111;52.130;5.028;2023-05-07T10:29:18;33.30;;;18.67;;
30301;SDS011;17111;52.130;5.028;2023-05-07T10:34:29;39.85;;;18.70;;
30301;SDS011;17111;52.130;5.028;2023-05-07T10:37:02;36.63;;;19.45;;
30301;SDS011;17111;52.130;5.028;2023-05-07T10:39:29;35.03;;;18.45;;
30301;SDS011;17111;52.130;5.028;2023-05-07T10:41:56;36.78;;;18.90;;
30301;SDS011;17111;52.130;5.028;2023-05-07T10:44:33;33.63;;;18.88;;
30301;SDS011;17111;52.130;5.028;2023-05-07T10:49:36;32.53;;;17.10;;
30301;SDS011;17111;52.130;5.028;2023-05-07T10:52:16;30.27;;;17.55;;
30301;SDS011;17111;52.130;5.028;2023-05-07T10:54:45;30.80;;;16.30;;
30301;SDS011;17111;52.130;5.028;2023-05-07T10:57:34;29.35;;;16.25;;
30301;SDS011;17111;52.130;5.028;2023-05-07T11:00:02;29.40;;;15.27;;
30301;SDS011;17111;52.130;5.028;2023-05-07T11:05:28;24.80;;;14.30;;
30301;SDS011;17111;52.130;5.028;2023-05-07T11:07:57;26.17;;;13.18;;
30301;SDS011;17111;52.130;5.028;2023-05-07T11:13:17;25.02;;;13.15;;
30301;SDS011;17111;52.130;5.028;2023-05-07T11:15:45;22.95;;;13.48;;
30301;SDS011;17111;52.130;5.028;2023-05-07T11:18:16;22.60;;;12.40;;
30301;SDS011;17111;52.130;5.028;2023-05-07T11:20:44;24.42;;;13.00;;
30301;SDS011;17111;52.130;5.028;2023-05-07T11:26:04;29.33;;;13.70;;
30301;SDS011;17111;52.130;5.028;2023-05-07T11:28:39;30.00;;;15.70;;
30301;SDS011;17111;52.130;5.028;2023-05-07T11:31:06;43.10;;;17.48;;
30301;SDS011;17111;52.130;5.028;2023-05-07T11:33:34;39.42;;;17.85;;
30301;SDS011;17111;52.130;5.028;2023-05-07T11:36:02;35.60;;;17.00;;
30301;SDS011;17111;52.130;5.028;2023-05-07T11:38:30;31.73;;;15.13;;
30301;SDS011;17111;52.130;5.028;2023-05-07T11:41:01;36.88;;;16.58;;
30301;SDS011;17111;52.130;5.028;2023-05-07T11:43:28;34.50;;;13.90;;
30301;SDS011;17111;52.130;5.028;2023-05-07T11:45:58;31.38;;;13.25;;
30301;SDS011;17111;52.130;5.028;2023-05-07T11:48:38;30.67;;;12.48;;
30301;SDS011;17111;52.130;5.028;2023-05-07T11:51:05;25.70;;;11.65;;
30301;SDS011;17111;52.130;5.028;2023-05-07T11:53:36;24.73;;;11.35;;
30301;SDS011;17111;52.130;5.028;2023-05-07T11:56:10;31.90;;;11.80;;
30301;SDS011;17111;52.130;5.028;2023-05-07T11:58:39;25.25;;;11.13;;
30301;SDS011;17111;52.130;5.028;2023-05-07T12:01:09;23.77;;;11.55;;
30301;SDS011;17111;52.130;5.028;2023-05-07T12:03:37;27.60;;;11.02;;
30301;SDS011;17111;52.130;5.028;2023-05-07T12:08:39;21.17;;;9.27;;
30301;SDS011;17111;52.130;5.028;2023-05-07T12:11:07;17.55;;;7.95;;
30301;SDS011;17111;52.130;5.028;2023-05-07T12:13:35;19.50;;;8.60;;
30301;SDS011;17111;52.130;5.028;2023-05-07T12:16:02;23.23;;;10.05;;
30301;SDS011;17111;52.130;5.028;2023-05-07T12:18:30;21.17;;;10.05;;
30301;SDS011;17111;52.130;5.028;2023-05-07T12:20:57;22.83;;;9.55;;
30301;SDS011;17111;52.130;5.028;2023-05-07T12:23:25;22.85;;;9.90;;
30301;SDS011;17111;52.130;5.028;2023-05-07T12:25:52;22.77;;;10.55;;
30301;SDS011;17111;52.130;5.028;2023-05-07T12:28:18;17.60;;;10.13;;
30301;SDS011;17111;52.130;5.028;2023-05-07T12:30:46;18.50;;;8.63;;
30301;SDS011;17111;52.130;5.028;2023-05-07T12:33:17;17.85;;;8.15;;
30301;SDS011;17111;52.130;5.028;2023-05-07T12:35:45;18.38;;;8.43;;
30301;SDS011;17111;52.130;5.028;2023-05-07T12:38:14;14.43;;;7.97;;
30301;SDS011;17111;52.130;5.028;2023-05-07T12:43:21;17.35;;;7.35;;
30301;SDS011;17111;52.130;5.028;2023-05-07T12:45:53;15.50;;;7.32;;
30301;SDS011;17111;52.130;5.028;2023-05-07T12:48:22;13.93;;;6.53;;
30301;SDS011;17111;52.130;5.028;2023-05-07T12:50:50;15.73;;;7.38;;
30301;SDS011;17111;52.130;5.028;2023-05-07T12:53:19;17.10;;;9.52;;
30301;SDS011;17111;52.130;5.028;2023-05-07T12:55:49;19.40;;;9.88;;
30301;SDS011;17111;52.130;5.028;2023-05-07T12:58:17;14.75;;;7.60;;
30301;SDS011;17111;52.130;5.028;2023-05-07T13:00:51;13.40;;;7.35;;
30301;SDS011;17111;52.130;5.028;2023-05-07T13:03:21;15.57;;;7.70;;
30301;SDS011;17111;52.130;5.028;2023-05-07T13:05:57;14.18;;;6.82;;
30301;SDS011;17111;52.130;5.028;2023-05-07T13:10:59;11.68;;;6.55;;
30301;SDS011;17111;52.130;5.028;2023-05-07T13:13:31;14.27;;;6.43;;
30301;SDS011;17111;52.130;5.028;2023-05-07T13:15:58;11.77;;;6.32;;
30301;SDS011;17111;52.130;5.028;2023-05-07T13:18:27;12.65;;;6.05;;
30301;SDS011;17111;52.130;5.028;2023-05-07T13:20:55;11.70;;;5.80;;
30301;SDS011;17111;52.130;5.028;2023-05-07T13:23:22;10.93;;;5.63;;
30301;SDS011;17111;52.130;5.028;2023-05-07T13:25:49;11.55;;;5.50;;
30301;SDS011;17111;52.130;5.028;2023-05-07T13:28:16;10.10;;;5.40;;
30301;SDS011;17111;52.130;5.028;2023-05-07T13:30:43;14.27;;;5.70;;
30301;SDS011;17111;52.130;5.028;2023-05-07T13:33:09;10.18;;;4.15;;
30301;SDS011;17111;52.130;5.028;2023-05-07T13:35:36;13.20;;;5.78;;
30301;SDS011;17111;52.130;5.028;2023-05-07T13:38:03;13.77;;;5.05;;
30301;SDS011;17111;52.130;5.028;2023-05-07T13:40:29;7.93;;;4.45;;
30301;SDS011;17111;52.130;5.028;2023-05-07T13:42:57;8.25;;;4.53;;
30301;SDS011;17111;52.130;5.028;2023-05-07T13:45:25;7.20;;;3.80;;
30301;SDS011;17111;52.130;5.028;2023-05-07T13:47:53;6.60;;;4.30;;
30301;SDS011;17111;52.130;5.028;2023-05-07T13:50:19;11.95;;;4.97;;
30301;SDS011;17111;52.130;5.028;2023-05-07T13:52:46;10.23;;;4.63;;
30301;SDS011;17111;52.130;5.028;2023-05-07T13:55:17;9.40;;;4.80;;
30301;SDS011;17111;52.130;5.028;2023-05-07T13:57:44;9.25;;;4.97;;
30301;SDS011;17111;52.130;5.028;2023-05-07T14:00:11;7.43;;;4.38;;
30301;SDS011;17111;52.130;5.028;2023-05-07T14:02:39;9.07;;;4.38;;
30301;SDS011;17111;52.130;5.028;2023-05-07T14:05:07;11.38;;;5.10;;
30301;SDS011;17111;52.130;5.028;2023-05-07T14:07:35;12.73;;;4.30;;
30301;SDS011;17111;52.130;5.028;2023-05-07T14:10:02;9.15;;;4.55;;
30301;SDS011;17111;52.130;5.028;2023-05-07T14:12:29;8.98;;;4.80;;
30301;SDS011;17111;52.130;5.028;2023-05-07T14:14:55;6.10;;;3.22;;
30301;SDS011;17111;52.130;5.028;2023-05-07T14:17:22;6.72;;;3.72;;
30301;SDS011;17111;52.130;5.028;2023-05-07T14:19:51;7.78;;;3.83;;
30301;SDS011;17111;52.130;5.028;2023-05-07T14:22:20;6.07;;;3.05;;
30301;SDS011;17111;52.130;5.028;2023-05-07T14:24:49;6.40;;;3.10;;
30301;SDS011;17111;52.130;5.028;2023-05-07T14:27:31;6.35;;;3.58;;
30301;SDS011;17111;52.130;5.028;2023-05-07T14:29:58;5.00;;;3.15;;
30301;SDS011;17111;52.130;5.028;2023-05-07T14:32:25;7.90;;;3.55;;
30301;SDS011;17111;52.130;5.028;2023-05-07T14:34:52;8.27;;;3.28;;
30301;SDS011;17111;52.130;5.028;2023-05-07T14:37:18;10.63;;;3.35;;
30301;SDS011;17111;52.130;5.028;2023-05-07T14:39:46;7.47;;;3.35;;
30301;SDS011;17111;52.130;5.028;2023-05-07T14:42:16;8.20;;;3.45;;
30301;SDS011;17111;52.130;5.028;2023-05-07T14:44:43;7.20;;;3.10;;
30301;SDS011;17111;52.130;5.028;2023-05-07T14:47:11;7.65;;;3.33;;
30301;SDS011;17111;52.130;5.028;2023-05-07T14:49:38;8.93;;;3.30;;